sensor_id;sensor_type;location;lat;lon;timestamp;P1;durP1;ratioP1;P2;durP2;ratioP2
32964;SDS011;19317;48.226;11.686;2024-03-02T00:02:00;12.90;;;11.60;;
32964;SDS011;19317;48.226;11.686;2024-03-02T00:06:51;12.83;;;11.40;;
32964;SDS011;19317;48.226;11.686;2024-03-02T00:11:42;14.63;;;11.27;;
32964;SDS011;19317;48.226;11.686;2024-03-02T00:16:33;11.60;;;10.40;;
32964;SDS011;19317;48.226;11.686;2024-03-02T00:21:25;11.93;;;10.63;;
32964;SDS011;19317;48.226;11.686;2024-03-02T00:26:18;10.57;;;9.53;;
32964;SDS011;19317;48.226;11.686;2024-03-02T00:31:09;10.00;;;9.10;;
32964;SDS011;19317;48.226;11.686;2024-03-02T00:36:02;10.17;;;9.17;;
32964;SDS011;19317;48.226;11.686;2024-03-02T00:40:53;12.23;;;8.70;;
32964;SDS011;19317;48.226;11.686;2024-03-02T00:45:44;9.83;;;8.93;;
32964;SDS011;19317;48.226;11.686;2024-03-02T00:50:35;10.93;;;9.10;;
32964;SDS011;19317;48.226;11.686;2024-03-02T00:55:26;11.03;;;9.93;;
32964;SDS011;19317;48.226;11.686;2024-03-02T01:00:17;10.87;;;8.90;;
32964;SDS011;19317;48.226;11.686;2024-03-02T01:05:08;8.97;;;8.10;;
32964;SDS011;19317;48.226;11.686;2024-03-02T01:09:59;9.90;;;8.77;;
32964;SDS011;19317;48.226;11.686;2024-03-02T01:14:50;12.00;;;8.73;;
32964;SDS011;19317;48.226;11.686;2024-03-02T01:19:41;11.30;;;9.07;;
32964;SDS011;19317;48.226;11.686;2024-03-02T01:24:32;9.90;;;8.90;;
32964;SDS011;19317;48.226;11.686;2024-03-02T01:29:23;10.00;;;8.50;;
32964;SDS011;19317;48.226;11.686;2024-03-02T01:34:14;9.83;;;8.93;;
32964;SDS011;19317;48.226;11.686;2024-03-02T01:39:05;9.67;;;8.63;;
32964;SDS011;19317;48.226;11.686;2024-03-02T01:43:55;10.90;;;8.70;;
32964;SDS011;19317;48.226;11.686;2024-03-02T01:48:46;9.17;;;8.37;;
32964;SDS011;19317;48.226;11.686;2024-03-02T01:53:37;9.90;;;8.90;;
32964;SDS011;19317;48.226;11.686;2024-03-02T01:58:28;9.23;;;8.33;;
32964;SDS011;19317;48.226;11.686;2024-03-02T02:03:19;9.47;;;8.57;;
32964;SDS011;19317;48.226;11.686;2024-03-02T02:08:10;9.67;;;8.67;;
32964;SDS011;19317;48.226;11.686;2024-03-02T02:13:01;9.23;;;8.33;;
32964;SDS011;19317;48.226;11.686;2024-03-02T02:17:52;8.77;;;7.83;;
32964;SDS011;19317;48.226;11.686;2024-03-02T02:22:53;9.83;;;8.93;;
32964;SDS011;19317;48.226;11.686;2024-03-02T02:27:44;9.20;;;8.30;;
32964;SDS011;19317;48.226;11.686;2024-03-02T02:32:35;9.17;;;8.27;;
32964;SDS011;19317;48.226;11.686;2024-03-02T02:37:26;9.40;;;8.40;;
32964;SDS011;19317;48.226;11.686;2024-03-02T02:42:17;10.40;;;8.97;;
32964;SDS011;19317;48.226;11.686;2024-03-02T02:47:07;9.70;;;8.83;;
32964;SDS011;19317;48.226;11.686;2024-03-02T02:51:58;10.00;;;9.00;;
32964;SDS011;19317;48.226;11.686;2024-03-02T02:56:49;10.07;;;9.17;;
32964;SDS011;19317;48.226;11.686;2024-03-02T03:01:40;9.97;;;9.07;;
32964;SDS011;19317;48.226;11.686;2024-03-02T03:06:31;10.13;;;9.13;;
32964;SDS011;19317;48.226;11.686;2024-03-02T03:11:22;10.47;;;9.40;;
32964;SDS011;19317;48.226;11.686;2024-03-02T03:16:13;10.83;;;9.73;;
32964;SDS011;19317;48.226;11.686;2024-03-02T03:21:03;11.07;;;9.73;;
32964;SDS011;19317;48.226;11.686;2024-03-02T03:25:54;10.73;;;9.63;;
32964;SDS011;19317;48.226;11.686;2024-03-02T03:30:45;10.63;;;9.40;;
32964;SDS011;19317;48.226;11.686;2024-03-02T03:35:36;10.93;;;9.87;;
32964;SDS011;19317;48.226;11.686;2024-03-02T03:40:27;11.20;;;10.10;;
32964;SDS011;19317;48.226;11.686;2024-03-02T03:45:18;11.00;;;9.90;;
32964;SDS011;19317;48.226;11.686;2024-03-02T03:50:09;10.77;;;9.67;;
32964;SDS011;19317;48.226;11.686;2024-03-02T03:55:00;10.30;;;9.33;;
32964;SDS011;19317;48.226;11.686;2024-03-02T03:59:51;10.73;;;9.57;;
32964;SDS011;19317;48.226;11.686;2024-03-02T04:04:42;10.80;;;9.63;;
32964;SDS011;19317;48.226;11.686;2024-03-02T04:09:33;10.53;;;9.47;;
32964;SDS011;19317;48.226;11.686;2024-03-02T04:14:24;10.47;;;9.40;;
32964;SDS011;19317;48.226;11.686;2024-03-02T04:19:14;10.50;;;9.50;;
32964;SDS011;19317;48.226;11.686;2024-03-02T04:24:05;10.97;;;9.83;;
32964;SDS011;19317;48.226;11.686;2024-03-02T04:28:56;11.97;;;10.13;;
32964;SDS011;19317;48.226;11.686;2024-03-02T04:33:47;13.17;;;10.20;;
32964;SDS011;19317;48.226;11.686;2024-03-02T04:38:38;11.33;;;10.13;;
32964;SDS011;19317;48.226;11.686;2024-03-02T04:43:29;11.43;;;10.33;;
32964;SDS011;19317;48.226;11.686;2024-03-02T04:48:20;11.97;;;10.00;;
32964;SDS011;19317;48.226;11.686;2024-03-02T04:53:11;12.90;;;10.43;;
32964;SDS011;19317;48.226;11.686;2024-03-02T04:58:02;12.37;;;10.97;;
32964;SDS011;19317;48.226;11.686;2024-03-02T05:02:53;12.30;;;10.90;;
32964;SDS011;19317;48.226;11.686;2024-03-02T05:07:43;12.20;;;10.90;;
32964;SDS011;19317;48.226;11.686;2024-03-02T05:12:34;12.57;;;11.27;;
32964;SDS011;19317;48.226;11.686;2024-03-02T05:17:25;12.37;;;10.77;;
32964;SDS011;19317;48.226;11.686;2024-03-02T05:22:16;14.70;;;11.17;;
32964;SDS011;19317;48.226;11.686;2024-03-02T05:27:07;13.87;;;11.60;;
32964;SDS011;19317;48.226;11.686;2024-03-02T05:31:58;13.80;;;12.17;;
32964;SDS011;19317;48.226;11.686;2024-03-02T05:36:49;14.10;;;12.17;;
32964;SDS011;19317;48.226;11.686;2024-03-02T05:41:40;12.80;;;11.20;;
32964;SDS011;19317;48.226;11.686;2024-03-02T05:46:31;13.17;;;11.80;;
32964;SDS011;19317;48.226;11.686;2024-03-02T05:51:22;12.80;;;11.47;;
32964;SDS011;19317;48.226;11.686;2024-03-02T05:56:13;13.63;;;11.27;;
32964;SDS011;19317;48.226;11.686;2024-03-02T06:01:04;14.43;;;11.07;;
32964;SDS011;19317;48.226;11.686;2024-03-02T06:05:55;13.17;;;11.10;;
32964;SDS011;19317;48.226;11.686;2024-03-02T06:10:45;12.33;;;11.03;;
32964;SDS011;19317;48.226;11.686;2024-03-02T06:15:36;12.23;;;10.50;;
32964;SDS011;19317;48.226;11.686;2024-03-02T06:20:27;11.97;;;10.80;;
32964;SDS011;19317;48.226;11.686;2024-03-02T06:25:19;13.33;;;11.10;;
32964;SDS011;19317;48.226;11.686;2024-03-02T06:30:10;12.57;;;11.27;;
32964;SDS011;19317;48.226;11.686;2024-03-02T06:35:01;11.57;;;10.37;;
32964;SDS011;19317;48.226;11.686;2024-03-02T06:39:52;12.60;;;10.80;;
32964;SDS011;19317;48.226;11.686;2024-03-02T06:44:43;12.83;;;10.53;;
32964;SDS011;19317;48.226;11.686;2024-03-02T06:49:34;11.43;;;10.20;;
32964;SDS011;19317;48.226;11.686;2024-03-02T06:54:25;11.93;;;10.03;;
32964;SDS011;19317;48.226;11.686;2024-03-02T06:59:15;11.67;;;10.47;;
32964;SDS011;19317;48.226;11.686;2024-03-02T07:04:06;12.40;;;10.53;;
32964;SDS011;19317;48.226;11.686;2024-03-02T07:08:57;14.17;;;12.30;;
32964;SDS011;19317;48.226;11.686;2024-03-02T07:13:48;13.97;;;11.50;;
32964;SDS011;19317;48.226;11.686;2024-03-02T07:18:39;14.33;;;12.53;;
32964;SDS011;19317;48.226;11.686;2024-03-02T07:23:30;13.23;;;11.83;;
32964;SDS011;19317;48.226;11.686;2024-03-02T07:28:21;15.20;;;12.57;;
32964;SDS011;19317;48.226;11.686;2024-03-02T07:33:11;15.93;;;13.50;;
32964;SDS011;19317;48.226;11.686;2024-03-02T07:38:02;17.93;;;13.17;;
32964;SDS011;19317;48.226;11.686;2024-03-02T07:42:53;15.83;;;13.53;;
32964;SDS011;19317;48.226;11.686;2024-03-02T07:47:44;16.43;;;13.43;;
32964;SDS011;19317;48.226;11.686;2024-03-02T07:52:36;16.60;;;13.87;;
32964;SDS011;19317;48.226;11.686;2024-03-02T07:57:27;16.97;;;14.33;;
32964;SDS011;19317;48.226;11.686;2024-03-02T08:02:18;15.73;;;14.07;;
32964;SDS011;19317;48.226;11.686;2024-03-02T08:07:09;17.70;;;13.97;;
32964;SDS011;19317;48.226;11.686;2024-03-02T08:12:00;16.63;;;13.57;;
32964;SDS011;19317;48.226;11.686;2024-03-02T08:16:51;17.20;;;15.10;;
32964;SDS011;19317;48.226;11.686;2024-03-02T08:21:42;20.93;;;16.20;;
32964;SDS011;19317;48.226;11.686;2024-03-02T08:26:33;18.97;;;15.77;;
32964;SDS011;19317;48.226;11.686;2024-03-02T08:31:24;18.57;;;16.43;;
32964;SDS011;19317;48.226;11.686;2024-03-02T08:36:15;19.57;;;16.80;;
32964;SDS011;19317;48.226;11.686;2024-03-02T08:41:06;22.47;;;18.17;;
32964;SDS011;19317;48.226;11.686;2024-03-02T08:45:57;22.80;;;17.97;;
32964;SDS011;19317;48.226;11.686;2024-03-02T08:50:48;22.43;;;17.93;;
32964;SDS011;19317;48.226;11.686;2024-03-02T08:55:39;22.97;;;18.23;;
32964;SDS011;19317;48.226;11.686;2024-03-02T09:00:29;24.87;;;18.73;;
32964;SDS011;19317;48.226;11.686;2024-03-02T09:05:20;23.53;;;18.60;;
32964;SDS011;19317;48.226;11.686;2024-03-02T09:10:11;25.70;;;19.07;;
32964;SDS011;19317;48.226;11.686;2024-03-02T09:15:02;27.73;;;20.10;;
32964;SDS011;19317;48.226;11.686;2024-03-02T09:19:53;25.67;;;19.67;;
32964;SDS011;19317;48.226;11.686;2024-03-02T09:24:44;27.37;;;20.67;;
32964;SDS011;19317;48.226;11.686;2024-03-02T09:29:35;25.10;;;19.40;;
32964;SDS011;19317;48.226;11.686;2024-03-02T09:34:26;26.13;;;19.73;;
32964;SDS011;19317;48.226;11.686;2024-03-02T09:39:17;24.53;;;19.17;;
32964;SDS011;19317;48.226;11.686;2024-03-02T09:44:08;26.07;;;19.23;;
32964;SDS011;19317;48.226;11.686;2024-03-02T09:48:59;26.07;;;18.83;;
32964;SDS011;19317;48.226;11.686;2024-03-02T09:53:50;24.67;;;18.30;;
32964;SDS011;19317;48.226;11.686;2024-03-02T09:58:41;25.13;;;18.73;;
32964;SDS011;19317;48.226;11.686;2024-03-02T10:03:32;26.13;;;19.50;;
32964;SDS011;19317;48.226;11.686;2024-03-02T10:08:24;24.07;;;17.63;;
32964;SDS011;19317;48.226;11.686;2024-03-02T10:13:15;22.80;;;17.73;;
32964;SDS011;19317;48.226;11.686;2024-03-02T10:18:12;23.73;;;17.60;;
32964;SDS011;19317;48.226;11.686;2024-03-02T10:23:13;20.37;;;16.80;;
32964;SDS011;19317;48.226;11.686;2024-03-02T10:28:04;25.07;;;19.10;;
32964;SDS011;19317;48.226;11.686;2024-03-02T10:32:55;28.47;;;19.67;;
32964;SDS011;19317;48.226;11.686;2024-03-02T10:37:47;22.53;;;17.83;;
32964;SDS011;19317;48.226;11.686;2024-03-02T10:42:37;21.47;;;18.00;;
32964;SDS011;19317;48.226;11.686;2024-03-02T10:47:29;23.60;;;19.13;;
32964;SDS011;19317;48.226;11.686;2024-03-02T10:52:21;25.90;;;19.93;;
32964;SDS011;19317;48.226;11.686;2024-03-02T10:57:12;24.07;;;19.43;;
32964;SDS011;19317;48.226;11.686;2024-03-02T11:02:04;24.70;;;19.60;;
32964;SDS011;19317;48.226;11.686;2024-03-02T11:07:05;27.60;;;20.77;;
32964;SDS011;19317;48.226;11.686;2024-03-02T11:12:19;28.57;;;20.50;;
32964;SDS011;19317;48.226;11.686;2024-03-02T11:17:08;25.20;;;21.00;;
32964;SDS011;19317;48.226;11.686;2024-03-02T11:21:58;29.43;;;21.73;;
32964;SDS011;19317;48.226;11.686;2024-03-02T11:26:50;25.40;;;20.80;;
32964;SDS011;19317;48.226;11.686;2024-03-02T11:31:59;25.53;;;20.63;;
32964;SDS011;19317;48.226;11.686;2024-03-02T11:36:50;22.90;;;18.70;;
32964;SDS011;19317;48.226;11.686;2024-03-02T11:41:41;26.23;;;21.07;;
32964;SDS011;19317;48.226;11.686;2024-03-02T11:46:32;26.43;;;21.10;;
32964;SDS011;19317;48.226;11.686;2024-03-02T11:51:23;22.63;;;19.07;;
32964;SDS011;19317;48.226;11.686;2024-03-02T11:56:14;22.10;;;18.80;;
32964;SDS011;19317;48.226;11.686;2024-03-02T12:01:05;23.27;;;19.87;;
32964;SDS011;19317;48.226;11.686;2024-03-02T12:05:55;21.93;;;18.87;;
32964;SDS011;19317;48.226;11.686;2024-03-02T12:10:57;21.20;;;18.17;;
32964;SDS011;19317;48.226;11.686;2024-03-02T12:15:48;18.33;;;16.33;;
32964;SDS011;19317;48.226;11.686;2024-03-02T12:20:43;17.90;;;15.70;;
32964;SDS011;19317;48.226;11.686;2024-03-02T12:25:34;19.20;;;16.93;;
32964;SDS011;19317;48.226;11.686;2024-03-02T12:30:26;23.10;;;17.77;;
32964;SDS011;19317;48.226;11.686;2024-03-02T12:35:17;21.50;;;17.63;;
32964;SDS011;19317;48.226;11.686;2024-03-02T12:40:09;22.40;;;18.00;;
32964;SDS011;19317;48.226;11.686;2024-03-02T12:45:00;21.17;;;18.00;;
32964;SDS011;19317;48.226;11.686;2024-03-02T12:49:51;19.57;;;16.97;;
32964;SDS011;19317;48.226;11.686;2024-03-02T12:54:42;22.07;;;17.43;;
32964;SDS011;19317;48.226;11.686;2024-03-02T12:59:33;21.03;;;18.27;;
32964;SDS011;19317;48.226;11.686;2024-03-02T13:04:27;23.60;;;19.27;;
32964;SDS011;19317;48.226;11.686;2024-03-02T13:09:18;19.53;;;16.57;;
32964;SDS011;19317;48.226;11.686;2024-03-02T13:14:12;19.80;;;17.07;;
32964;SDS011;19317;48.226;11.686;2024-03-02T13:19:03;20.40;;;17.20;;
32964;SDS011;19317;48.226;11.686;2024-03-02T13:23:54;19.07;;;16.23;;
32964;SDS011;19317;48.226;11.686;2024-03-02T13:28:44;20.73;;;16.57;;
32964;SDS011;19317;48.226;11.686;2024-03-02T13:33:35;17.03;;;14.93;;
32964;SDS011;19317;48.226;11.686;2024-03-02T13:38:26;19.40;;;15.67;;
32964;SDS011;19317;48.226;11.686;2024-03-02T13:43:17;22.20;;;16.40;;
32964;SDS011;19317;48.226;11.686;2024-03-02T13:48:08;20.90;;;16.13;;
32964;SDS011;19317;48.226;11.686;2024-03-02T13:52:59;21.13;;;16.70;;
32964;SDS011;19317;48.226;11.686;2024-03-02T13:57:50;24.87;;;18.87;;
32964;SDS011;19317;48.226;11.686;2024-03-02T14:02:41;23.60;;;18.77;;
32964;SDS011;19317;48.226;11.686;2024-03-02T14:07:32;22.57;;;17.50;;
32964;SDS011;19317;48.226;11.686;2024-03-02T14:12:23;18.03;;;16.00;;
32964;SDS011;19317;48.226;11.686;2024-03-02T14:17:13;20.87;;;17.80;;
32964;SDS011;19317;48.226;11.686;2024-03-02T14:22:04;21.40;;;17.43;;
32964;SDS011;19317;48.226;11.686;2024-03-02T14:26:55;18.47;;;15.57;;
32964;SDS011;19317;48.226;11.686;2024-03-02T14:31:46;18.50;;;14.47;;
32964;SDS011;19317;48.226;11.686;2024-03-02T14:36:37;18.63;;;14.60;;
32964;SDS011;19317;48.226;11.686;2024-03-02T14:41:28;16.73;;;14.73;;
32964;SDS011;19317;48.226;11.686;2024-03-02T14:46:19;19.60;;;16.07;;
32964;SDS011;19317;48.226;11.686;2024-03-02T14:51:10;16.77;;;14.83;;
32964;SDS011;19317;48.226;11.686;2024-03-02T14:56:01;17.83;;;15.37;;
32964;SDS011;19317;48.226;11.686;2024-03-02T15:00:52;16.67;;;14.87;;
32964;SDS011;19317;48.226;11.686;2024-03-02T15:05:42;15.23;;;13.43;;
32964;SDS011;19317;48.226;11.686;2024-03-02T15:10:33;17.43;;;14.43;;
32964;SDS011;19317;48.226;11.686;2024-03-02T15:15:24;15.40;;;13.80;;
32964;SDS011;19317;48.226;11.686;2024-03-02T15:20:15;17.37;;;13.97;;
32964;SDS011;19317;48.226;11.686;2024-03-02T15:25:06;18.43;;;15.90;;
32964;SDS011;19317;48.226;11.686;2024-03-02T15:29:58;19.53;;;15.50;;
32964;SDS011;19317;48.226;11.686;2024-03-02T15:34:49;19.60;;;16.17;;
32964;SDS011;19317;48.226;11.686;2024-03-02T15:39:39;19.73;;;16.70;;
32964;SDS011;19317;48.226;11.686;2024-03-02T15:44:30;20.30;;;17.27;;
32964;SDS011;19317;48.226;11.686;2024-03-02T15:49:21;19.40;;;16.50;;
32964;SDS011;19317;48.226;11.686;2024-03-02T15:54:12;21.37;;;17.30;;
32964;SDS011;19317;48.226;11.686;2024-03-02T15:59:03;22.63;;;17.03;;
32964;SDS011;19317;48.226;11.686;2024-03-02T16:03:54;19.50;;;16.47;;
32964;SDS011;19317;48.226;11.686;2024-03-02T16:08:45;20.33;;;16.63;;
32964;SDS011;19317;48.226;11.686;2024-03-02T16:13:36;19.83;;;16.10;;
32964;SDS011;19317;48.226;11.686;2024-03-02T16:18:27;20.80;;;16.53;;
32964;SDS011;19317;48.226;11.686;2024-03-02T16:23:18;20.17;;;16.63;;
32964;SDS011;19317;48.226;11.686;2024-03-02T16:28:09;22.03;;;17.10;;
32964;SDS011;19317;48.226;11.686;2024-03-02T16:33:00;22.57;;;16.93;;
32964;SDS011;19317;48.226;11.686;2024-03-02T16:37:51;22.13;;;17.20;;
32964;SDS011;19317;48.226;11.686;2024-03-02T16:42:42;22.60;;;17.93;;
32964;SDS011;19317;48.226;11.686;2024-03-02T16:47:33;25.03;;;17.47;;
32964;SDS011;19317;48.226;11.686;2024-03-02T16:52:24;21.30;;;17.23;;
32964;SDS011;19317;48.226;11.686;2024-03-02T16:57:15;24.37;;;18.40;;
32964;SDS011;19317;48.226;11.686;2024-03-02T17:02:06;22.30;;;17.60;;
32964;SDS011;19317;48.226;11.686;2024-03-02T17:06:57;22.67;;;18.03;;
32964;SDS011;19317;48.226;11.686;2024-03-02T17:11:48;22.30;;;17.23;;
32964;SDS011;19317;48.226;11.686;2024-03-02T17:16:39;23.23;;;17.77;;
32964;SDS011;19317;48.226;11.686;2024-03-02T17:21:29;22.37;;;16.80;;
32964;SDS011;19317;48.226;11.686;2024-03-02T17:26:20;20.30;;;16.50;;
32964;SDS011;19317;48.226;11.686;2024-03-02T17:31:11;22.07;;;17.40;;
32964;SDS011;19317;48.226;11.686;2024-03-02T17:36:02;24.80;;;18.27;;
32964;SDS011;19317;48.226;11.686;2024-03-02T17:40:53;23.00;;;18.43;;
32964;SDS011;19317;48.226;11.686;2024-03-02T17:45:44;26.77;;;19.87;;
32964;SDS011;19317;48.226;11.686;2024-03-02T17:50:35;27.80;;;20.87;;
32964;SDS011;19317;48.226;11.686;2024-03-02T17:55:26;29.03;;;20.50;;
32964;SDS011;19317;48.226;11.686;2024-03-02T18:00:17;25.37;;;20.50;;
32964;SDS011;19317;48.226;11.686;2024-03-02T18:05:08;24.43;;;18.90;;
32964;SDS011;19317;48.226;11.686;2024-03-02T18:09:59;27.50;;;20.07;;
32964;SDS011;19317;48.226;11.686;2024-03-02T18:14:50;28.67;;;21.00;;
32964;SDS011;19317;48.226;11.686;2024-03-02T18:19:41;27.77;;;21.53;;
32964;SDS011;19317;48.226;11.686;2024-03-02T18:24:32;29.40;;;22.67;;
32964;SDS011;19317;48.226;11.686;2024-03-02T18:29:23;29.33;;;22.37;;
32964;SDS011;19317;48.226;11.686;2024-03-02T18:34:13;29.20;;;22.33;;
32964;SDS011;19317;48.226;11.686;2024-03-02T18:39:04;26.53;;;20.83;;
32964;SDS011;19317;48.226;11.686;2024-03-02T18:43:55;28.90;;;22.03;;
32964;SDS011;19317;48.226;11.686;2024-03-02T18:48:46;28.77;;;21.80;;
32964;SDS011;19317;48.226;11.686;2024-03-02T18:53:37;25.10;;;20.20;;
32964;SDS011;19317;48.226;11.686;2024-03-02T18:58:28;26.67;;;20.50;;
32964;SDS011;19317;48.226;11.686;2024-03-02T19:03:19;29.30;;;22.43;;
32964;SDS011;19317;48.226;11.686;2024-03-02T19:08:10;27.40;;;20.57;;
32964;SDS011;19317;48.226;11.686;2024-03-02T19:13:00;26.53;;;20.90;;
32964;SDS011;19317;48.226;11.686;2024-03-02T19:17:51;27.63;;;20.67;;
32964;SDS011;19317;48.226;11.686;2024-03-02T19:22:42;26.33;;;19.47;;
32964;SDS011;19317;48.226;11.686;2024-03-02T19:27:33;26.53;;;20.23;;
32964;SDS011;19317;48.226;11.686;2024-03-02T19:32:24;24.90;;;19.90;;
32964;SDS011;19317;48.226;11.686;2024-03-02T19:37:15;25.60;;;20.30;;
32964;SDS011;19317;48.226;11.686;2024-03-02T19:42:06;26.20;;;20.50;;
32964;SDS011;19317;48.226;11.686;2024-03-02T19:46:56;25.40;;;20.83;;
32964;SDS011;19317;48.226;11.686;2024-03-02T19:51:47;27.43;;;21.33;;
32964;SDS011;19317;48.226;11.686;2024-03-02T19:56:38;25.00;;;19.57;;
32964;SDS011;19317;48.226;11.686;2024-03-02T20:01:29;26.23;;;21.23;;
32964;SDS011;19317;48.226;11.686;2024-03-02T20:06:20;30.00;;;20.97;;
32964;SDS011;19317;48.226;11.686;2024-03-02T20:11:11;29.30;;;21.23;;
32964;SDS011;19317;48.226;11.686;2024-03-02T20:20:55;28.87;;;21.70;;
32964;SDS011;19317;48.226;11.686;2024-03-02T20:25:46;26.80;;;20.80;;
32964;SDS011;19317;48.226;11.686;2024-03-02T20:30:37;27.97;;;20.90;;
32964;SDS011;19317;48.226;11.686;2024-03-02T20:35:28;26.83;;;21.10;;
32964;SDS011;19317;48.226;11.686;2024-03-02T20:40:19;29.73;;;21.80;;
32964;SDS011;19317;48.226;11.686;2024-03-02T20:45:09;26.23;;;20.97;;
32964;SDS011;19317;48.226;11.686;2024-03-02T20:50:00;29.73;;;20.93;;
32964;SDS011;19317;48.226;11.686;2024-03-02T20:54:51;28.23;;;21.13;;
32964;SDS011;19317;48.226;11.686;2024-03-02T20:59:42;35.10;;;26.93;;
32964;SDS011;19317;48.226;11.686;2024-03-02T21:04:33;29.23;;;22.27;;
32964;SDS011;19317;48.226;11.686;2024-03-02T21:09:24;30.17;;;22.20;;
32964;SDS011;19317;48.226;11.686;2024-03-02T21:14:15;23.83;;;19.00;;
32964;SDS011;19317;48.226;11.686;2024-03-02T21:19:06;25.27;;;19.17;;
32964;SDS011;19317;48.226;11.686;2024-03-02T21:23:57;26.03;;;19.90;;
32964;SDS011;19317;48.226;11.686;2024-03-02T21:28:48;29.33;;;20.90;;
32964;SDS011;19317;48.226;11.686;2024-03-02T21:33:39;26.77;;;19.30;;
32964;SDS011;19317;48.226;11.686;2024-03-02T21:38:29;26.83;;;20.47;;
32964;SDS011;19317;48.226;11.686;2024-03-02T21:43:20;27.50;;;20.57;;
32964;SDS011;19317;48.226;11.686;2024-03-02T21:48:11;27.47;;;20.13;;
32964;SDS011;19317;48.226;11.686;2024-03-02T21:53:02;27.80;;;20.83;;
32964;SDS011;19317;48.226;11.686;2024-03-02T21:57:53;23.47;;;19.10;;
32964;SDS011;19317;48.226;11.686;2024-03-02T22:02:44;30.33;;;21.77;;
32964;SDS011;19317;48.226;11.686;2024-03-02T22:07:35;28.10;;;20.80;;
32964;SDS011;19317;48.226;11.686;2024-03-02T22:12:26;24.63;;;19.73;;
32964;SDS011;19317;48.226;11.686;2024-03-02T22:17:16;25.73;;;20.30;;
32964;SDS011;19317;48.226;11.686;2024-03-02T22:22:07;28.63;;;21.70;;
32964;SDS011;19317;48.226;11.686;2024-03-02T22:26:58;25.77;;;19.30;;
32964;SDS011;19317;48.226;11.686;2024-03-02T22:31:49;27.23;;;20.70;;
32964;SDS011;19317;48.226;11.686;2024-03-02T22:36:40;24.50;;;18.60;;
32964;SDS011;19317;48.226;11.686;2024-03-02T22:41:31;25.40;;;18.90;;
32964;SDS011;19317;48.226;11.686;2024-03-02T22:46:22;27.90;;;20.73;;
32964;SDS011;19317;48.226;11.686;2024-03-02T22:51:23;25.93;;;20.47;;
32964;SDS011;19317;48.226;11.686;2024-03-02T22:56:14;29.63;;;21.20;;
32964;SDS011;19317;48.226;11.686;2024-03-02T23:01:05;27.57;;;20.77;;
32964;SDS011;19317;48.226;11.686;2024-03-02T23:05:55;24.43;;;19.47;;
32964;SDS011;19317;48.226;11.686;2024-03-02T23:10:46;24.20;;;18.40;;
32964;SDS011;19317;48.226;11.686;2024-03-02T23:15:37;22.73;;;16.87;;
32964;SDS011;19317;48.226;11.686;2024-03-02T23:20:28;23.43;;;17.87;;
32964;SDS011;19317;48.226;11.686;2024-03-02T23:25:19;22.77;;;16.57;;
32964;SDS011;19317;48.226;11.686;2024-03-02T23:30:10;18.33;;;14.97;;
32964;SDS011;19317;48.226;11.686;2024-03-02T23:35:01;16.70;;;14.50;;
32964;SDS011;19317;48.226;11.686;2024-03-02T23:39:52;18.67;;;14.73;;
32964;SDS011;19317;48.226;11.686;2024-03-02T23:44:43;20.30;;;16.70;;
32964;SDS011;19317;48.226;11.686;2024-03-02T23:49:33;22.23;;;16.50;;
32964;SDS011;19317;48.226;11.686;2024-03-02T23:54:24;26.63;;;19.93;;
32964;SDS011;19317;48.226;11.686;2024-03-02T23:59:15;23.23;;;18.00;;
